| time (UTC) | temp F | wind direction | speed MPH | gust MPH | rain 1hr in | rain 24hr in | rain mn in | humidity % | barometer mb |
| 20260506211550 | 54 | 262 | 10.0 | 0.0 | 0.00 | 0.00 | 0.00 | 24 | 1005.2 |
| 20260506210048 | 54 | 230 | 9.0 | 0.0 | 0.00 | 0.00 | 0.00 | 24 | 1005.5 |
| 20260506204551 | 53 | 260 | 8.0 | 0.0 | 0.00 | 0.00 | 0.00 | 26 | 1005.7 |
| 20260506203046 | 53 | 250 | 9.0 | 0.0 | 0.00 | 0.00 | 0.00 | 26 | 1005.7 |
| 20260506201543 | 52 | 310 | 7.0 | 0.0 | 0.00 | 0.00 | 0.00 | 27 | 1006.0 |
| 20260506200043 | 52 | 253 | 9.0 | 0.0 | 0.00 | 0.00 | 0.00 | 26 | 1006.4 |
| 20260506194542 | 51 | 281 | 7.0 | 0.0 | 0.00 | 0.00 | 0.00 | 26 | 1006.4 |
| 20260506193039 | 51 | 248 | 11.0 | 0.0 | 0.00 | 0.00 | 0.00 | 26 | 1006.8 |
| 20260506191535 | 51 | 250 | 8.0 | 0.0 | 0.00 | 0.00 | 0.00 | 26 | 1007.1 |
| 20260506190032 | 50 | 271 | 11.0 | 0.0 | 0.00 | 0.00 | 0.00 | 27 | 1007.5 |
| 20260506184531 | 50 | 202 | 7.0 | 0.0 | 0.00 | 0.00 | 0.00 | 28 | 1007.6 |
| 20260506183028 | 50 | 281 | 9.0 | 0.0 | 0.00 | 0.00 | 0.00 | 27 | 1008.1 |
| 20260506181525 | 49 | 301 | 8.0 | 0.0 | 0.00 | 0.00 | 0.00 | 27 | 1008.3 |
| 20260506180023 | 49 | 252 | 9.0 | 0.0 | 0.00 | 0.00 | 0.00 | 26 | 1008.7 |
| 20260506174521 | 48 | 287 | 5.0 | 0.0 | 0.00 | 0.00 | 0.00 | 28 | 1008.8 |
| 20260506173018 | 48 | 246 | 8.0 | 0.0 | 0.00 | 0.00 | 0.00 | 27 | 1009.1 |
| 20260506171520 | 48 | 157 | 8.0 | 0.0 | 0.00 | 0.00 | 0.00 | 28 | 1009.2 |
| 20260506170012 | 47 | 231 | 8.0 | 0.0 | 0.00 | 0.00 | 0.00 | 29 | 1009.5 |
| 20260506164509 | 46 | 325 | 8.0 | 0.0 | 0.00 | 0.00 | 0.00 | 29 | 1009.8 |
| 20260506163009 | 46 | 243 | 7.0 | 0.0 | 0.00 | 0.00 | 0.00 | 29 | 1009.9 |
| 20260506161502 | 45 | 295 | 7.0 | 0.0 | 0.00 | 0.00 | 0.00 | 31 | 1010.2 |
| 20260506160002 | 44 | 171 | 7.0 | 0.0 | 0.00 | 0.00 | 0.00 | 32 | 1010.3 |
| 20260506154558 | 44 | 243 | 5.0 | 0.0 | 0.00 | 0.00 | 0.00 | 34 | 1010.5 |
| 20260506153057 | 42 | 203 | 6.0 | 0.0 | 0.00 | 0.00 | 0.00 | 36 | 1010.5 |
| 20260506151552 | 41 | 247 | 5.0 | 0.0 | 0.00 | 0.00 | 0.00 | 39 | 1010.7 |
| 20260506150056 | 40 | 221 | 5.0 | 0.0 | 0.00 | 0.00 | 0.00 | 41 | 1010.9 |
| 20260506144600 | 39 | 211 | 6.0 | 0.0 | 0.00 | 0.00 | 0.00 | 43 | 1010.9 |
| 20260506143041 | 37 | 227 | 4.0 | 0.0 | 0.00 | 0.00 | 0.00 | 45 | 1011.1 |
| 20260506141537 | 36 | 219 | 4.0 | 0.0 | 0.00 | 0.00 | 0.00 | 47 | 1011.2 |
| 20260506140033 | 34 | 206 | 5.0 | 0.0 | 0.00 | 0.00 | 0.00 | 51 | 1011.3 |
| 20260506134529 | 32 | 200 | 6.0 | 0.0 | 0.00 | 0.00 | 0.00 | 53 | 1011.3 |
| 20260506133025 | 31 | 218 | 7.0 | 0.0 | 0.00 | 0.00 | 0.00 | 56 | 1011.3 |
| 20260506131526 | 29 | 192 | 7.0 | 0.0 | 0.00 | 0.00 | 0.00 | 59 | 1011.4 |
| 20260506130019 | 28 | 201 | 6.0 | 0.0 | 0.00 | 0.00 | 0.00 | 64 | 1011.3 |
| 20260506124513 | 25 | 171 | 5.0 | 0.0 | 0.00 | 0.00 | 0.00 | 69 | 1011.2 |
| 20260506123013 | 24 | 170 | 5.0 | 0.0 | 0.00 | 0.00 | 0.00 | 70 | 1011.1 |
| 20260506121506 | 22 | 173 | 4.0 | 0.0 | 0.00 | 0.00 | 0.00 | 72 | 1011.1 |
| 20260506120013 | 21 | 178 | 4.0 | 0.0 | 0.00 | 0.00 | 0.00 | 73 | 1011.0 |
| 20260506114505 | 21 | 168 | 4.0 | 0.0 | 0.00 | 0.00 | 0.00 | 71 | 1010.9 |
| 20260506113003 | 21 | 156 | 2.0 | 0.0 | 0.00 | 0.00 | 0.00 | 70 | 1010.8 |
| 20260506111504 | 21 | 156 | 3.0 | 0.0 | 0.00 | 0.00 | 0.00 | 70 | 1010.8 |
| 20260506110001 | 21 | 157 | 2.0 | 0.0 | 0.00 | 0.00 | 0.00 | 69 | 1010.8 |
| 20260506104601 | 22 | 161 | 5.0 | 0.0 | 0.00 | 0.00 | 0.00 | 69 | 1010.7 |
| 20260506103059 | 23 | 158 | 4.0 | 0.0 | 0.00 | 0.00 | 0.00 | 66 | 1010.7 |
| 20260506101557 | 24 | 159 | 5.0 | 0.0 | 0.00 | 0.00 | 0.00 | 65 | 1010.7 |
| 20260506100104 | 23 | 159 | 4.0 | 0.0 | 0.00 | 0.00 | 0.00 | 67 | 1010.6 |
| 20260506094612 | 24 | 168 | 4.0 | 0.0 | 0.00 | 0.00 | 0.00 | 65 | 1010.6 |
| 20260506093058 | 24 | 172 | 4.0 | 0.0 | 0.00 | 0.00 | 0.00 | 66 | 1010.6 |
| 20260506091556 | 23 | 171 | 3.0 | 0.0 | 0.00 | 0.00 | 0.00 | 68 | 1010.6 |
| 20260506090055 | 22 | 171 | 4.0 | 0.0 | 0.00 | 0.00 | 0.00 | 68 | 1010.7 |
| 20260506084557 | 20 | 166 | 3.0 | 0.0 | 0.00 | 0.00 | 0.00 | 70 | 1010.6 |
| 20260506083058 | 19 | 171 | 3.0 | 0.0 | 0.00 | 0.00 | 0.00 | 72 | 1010.5 |
| 20260506081549 | 20 | 180 | 3.0 | 0.0 | 0.00 | 0.00 | 0.00 | 68 | 1010.5 |
| 20260506080105 | 22 | 186 | 2.0 | 0.0 | 0.00 | 0.00 | 0.00 | 65 | 1010.5 |
| 20260506073057 | 21 | 187 | 2.0 | 0.0 | 0.00 | 0.00 | 0.00 | 68 | 1010.6 |
| 20260506071545 | 21 | 187 | 2.0 | 0.0 | 0.00 | 0.00 | 0.00 | 69 | 1010.4 |
| 20260506061533 | 23 | 206 | 2.0 | 0.0 | 0.00 | 0.00 | 0.00 | 67 | 1010.2 |
| 20260506044527 | 27 | 249 | 2.0 | 0.0 | 0.00 | 0.00 | 0.00 | 61 | 1009.9 |
| 20260506043014 | 30 | 270 | 2.0 | 0.0 | 0.00 | 0.00 | 0.00 | 57 | 1009.9 |
| 20260506041508 | 35 | 311 | 0.0 | 0.0 | 0.00 | 0.00 | 0.00 | 50 | 1009.9 |
| 20260506040009 | 36 | 328 | 2.0 | 0.0 | 0.00 | 0.00 | 0.00 | 50 | 1009.7 |
| 20260506034505 | 35 | 310 | 1.0 | 0.0 | 0.00 | 0.00 | 0.00 | 53 | 1009.7 |
| 20260506033004 | 35 | 265 | 1.0 | 0.0 | 0.00 | 0.00 | 0.00 | 55 | 1009.6 |
| 20260506031504 | 36 | 265 | 2.0 | 0.0 | 0.00 | 0.00 | 0.00 | 56 | 1009.4 |
| 20260506030104 | 38 | 307 | 1.0 | 0.0 | 0.00 | 0.00 | 0.00 | 52 | 1009.3 |
| 20260506024615 | 39 | 309 | 1.0 | 0.0 | 0.00 | 0.00 | 0.00 | 48 | 1009.1 |
| 20260506023104 | 40 | 309 | 0.0 | 0.0 | 0.00 | 0.00 | 0.00 | 45 | 1009.0 |
| 20260506021600 | 41 | 309 | 1.0 | 0.0 | 0.00 | 0.00 | 0.00 | 43 | 1008.9 |
| 20260506020056 | 42 | 314 | 3.0 | 0.0 | 0.00 | 0.00 | 0.00 | 42 | 1008.7 |
| 20260506014556 | 42 | 296 | 4.0 | 0.0 | 0.00 | 0.00 | 0.00 | 41 | 1008.8 |
| 20260506013101 | 43 | 311 | 5.0 | 0.0 | 0.00 | 0.00 | 0.00 | 40 | 1008.7 |
| 20260506011621 | 43 | 330 | 7.0 | 0.0 | 0.00 | 0.00 | 0.00 | 39 | 1008.6 |
| 20260506010106 | 44 | 336 | 10.0 | 0.0 | 0.00 | 0.00 | 0.00 | 37 | 1008.6 |
| 20260506004555 | 45 | 313 | 10.0 | 0.0 | 0.00 | 0.00 | 0.00 | 37 | 1008.5 |
| 20260506003056 | 45 | 321 | 12.0 | 0.0 | 0.00 | 0.00 | 0.00 | 36 | 1008.4 |
| 20260506001556 | 44 | 317 | 10.0 | 0.0 | 0.00 | 0.00 | 0.00 | 37 | 1008.5 |
| 20260506000057 | 45 | 346 | 10.0 | 0.0 | 0.00 | 0.00 | 0.00 | 37 | 1008.4 |
| 20260505234551 | 45 | 338 | 11.0 | 0.0 | 0.00 | 0.00 | 0.00 | 37 | 1008.4 |
| 20260505233051 | 44 | 338 | 12.0 | 0.0 | 0.00 | 0.00 | 0.00 | 37 | 1008.3 |
| 20260505231554 | 44 | 326 | 12.0 | 0.0 | 0.00 | 0.00 | 0.00 | 37 | 1008.1 |
| 20260505230057 | 45 | 319 | 13.0 | 0.0 | 0.00 | 0.00 | 0.00 | 37 | 1008.1 |
| 20260505224550 | 45 | 285 | 13.0 | 0.0 | 0.00 | 0.00 | 0.00 | 36 | 1008.2 |
| 20260505223047 | 44 | 314 | 13.0 | 0.0 | 0.00 | 0.00 | 0.00 | 37 | 1008.2 |
| 20260505221559 | 44 | 288 | 12.0 | 0.0 | 0.00 | 0.00 | 0.00 | 38 | 1008.3 |
| 20260505220059 | 43 | 13 | 12.0 | 0.0 | 0.00 | 0.00 | 0.00 | 39 | 1008.4 |
| 20260505214552 | 44 | 294 | 13.0 | 0.0 | 0.00 | 0.00 | 0.00 | 38 | 1008.4 |
| 20260505213047 | 43 | 338 | 12.0 | 0.0 | 0.00 | 0.00 | 0.00 | 39 | 1008.4 |